sensor_id;sensor_type;location;lat;lon;timestamp;temperature;humidity
12907;DHT22;6521;50.498;8.474;2022-11-25T00:00:41;3.96;91.67
12907;DHT22;6521;50.498;8.474;2022-11-25T00:03:12;4.01;93.19
12907;DHT22;6521;50.498;8.474;2022-11-25T00:05:42;4.20;93.95
12907;DHT22;6521;50.498;8.474;2022-11-25T00:08:13;4.50;94.49
12907;DHT22;6521;50.498;8.474;2022-11-25T00:10:44;4.70;94.31
12907;DHT22;6521;50.498;8.474;2022-11-25T00:13:14;4.98;94.45
12907;DHT22;6521;50.498;8.474;2022-11-25T00:15:45;5.18;94.03
12907;DHT22;6521;50.498;8.474;2022-11-25T00:18:16;5.24;93.43
12907;DHT22;6521;50.498;8.474;2022-11-25T00:20:46;5.34;93.20
12907;DHT22;6521;50.498;8.474;2022-11-25T00:23:17;5.39;92.77
12907;DHT22;6521;50.498;8.474;2022-11-25T00:25:48;5.40;92.74
12907;DHT22;6521;50.498;8.474;2022-11-25T00:28:19;5.40;92.61
12907;DHT22;6521;50.498;8.474;2022-11-25T00:30:50;5.36;92.38
12907;DHT22;6521;50.498;8.474;2022-11-25T00:33:20;5.22;91.64
12907;DHT22;6521;50.498;8.474;2022-11-25T00:35:51;5.07;91.68
12907;DHT22;6521;50.498;8.474;2022-11-25T00:38:22;4.81;90.82
12907;DHT22;6521;50.498;8.474;2022-11-25T00:40:53;4.60;90.75
12907;DHT22;6521;50.498;8.474;2022-11-25T00:43:43;4.37;90.68
12907;DHT22;6521;50.498;8.474;2022-11-25T00:46:32;4.25;91.09
12907;DHT22;6521;50.498;8.474;2022-11-25T00:49:03;4.19;91.61
12907;DHT22;6521;50.498;8.474;2022-11-25T00:51:34;4.15;91.94
12907;DHT22;6521;50.498;8.474;2022-11-25T00:54:04;4.12;91.76
12907;DHT22;6521;50.498;8.474;2022-11-25T00:56:36;4.03;91.53
12907;DHT22;6521;50.498;8.474;2022-11-25T00:59:07;3.95;91.63
12907;DHT22;6521;50.498;8.474;2022-11-25T01:01:38;3.87;91.49
12907;DHT22;6521;50.498;8.474;2022-11-25T01:04:09;3.77;91.03
12907;DHT22;6521;50.498;8.474;2022-11-25T01:06:40;3.64;91.27
12907;DHT22;6521;50.498;8.474;2022-11-25T01:09:11;3.56;91.34
12907;DHT22;6521;50.498;8.474;2022-11-25T01:11:42;3.46;91.30
12907;DHT22;6521;50.498;8.474;2022-11-25T01:14:13;3.37;91.62
12907;DHT22;6521;50.498;8.474;2022-11-25T01:16:44;3.33;91.92
12907;DHT22;6521;50.498;8.474;2022-11-25T01:19:16;3.34;91.97
12907;DHT22;6521;50.498;8.474;2022-11-25T01:21:46;3.31;92.01
12907;DHT22;6521;50.498;8.474;2022-11-25T01:24:17;3.27;92.13
12907;DHT22;6521;50.498;8.474;2022-11-25T01:26:48;3.26;92.07
12907;DHT22;6521;50.498;8.474;2022-11-25T01:29:18;3.19;92.06
12907;DHT22;6521;50.498;8.474;2022-11-25T01:31:49;3.17;92.69
12907;DHT22;6521;50.498;8.474;2022-11-25T01:34:25;3.19;92.75
12907;DHT22;6521;50.498;8.474;2022-11-25T01:36:56;3.16;92.72
12907;DHT22;6521;50.498;8.474;2022-11-25T01:39:27;3.15;92.55
12907;DHT22;6521;50.498;8.474;2022-11-25T01:41:58;3.08;92.55
12907;DHT22;6521;50.498;8.474;2022-11-25T01:44:30;3.05;92.69
12907;DHT22;6521;50.498;8.474;2022-11-25T01:47:13;3.03;92.54
12907;DHT22;6521;50.498;8.474;2022-11-25T01:49:52;2.99;92.60
12907;DHT22;6521;50.498;8.474;2022-11-25T01:52:38;2.93;92.61
12907;DHT22;6521;50.498;8.474;2022-11-25T01:55:18;2.91;92.60
12907;DHT22;6521;50.498;8.474;2022-11-25T01:58:00;2.91;92.83
12907;DHT22;6521;50.498;8.474;2022-11-25T02:00:33;2.89;92.87
12907;DHT22;6521;50.498;8.474;2022-11-25T02:03:05;2.89;92.95
12907;DHT22;6521;50.498;8.474;2022-11-25T02:08:11;2.95;93.05
12907;DHT22;6521;50.498;8.474;2022-11-25T02:10:43;2.95;92.85
12907;DHT22;6521;50.498;8.474;2022-11-25T02:13:14;2.93;92.70
12907;DHT22;6521;50.498;8.474;2022-11-25T02:15:45;2.92;92.74
12907;DHT22;6521;50.498;8.474;2022-11-25T02:18:16;2.88;92.71
12907;DHT22;6521;50.498;8.474;2022-11-25T02:20:48;2.89;92.68
12907;DHT22;6521;50.498;8.474;2022-11-25T02:26:04;2.87;92.72
12907;DHT22;6521;50.498;8.474;2022-11-25T02:28:35;2.87;92.81
12907;DHT22;6521;50.498;8.474;2022-11-25T02:31:08;2.84;92.76
12907;DHT22;6521;50.498;8.474;2022-11-25T02:33:40;2.79;92.80
12907;DHT22;6521;50.498;8.474;2022-11-25T02:36:13;2.82;93.03
12907;DHT22;6521;50.498;8.474;2022-11-25T02:38:50;2.82;93.08
12907;DHT22;6521;50.498;8.474;2022-11-25T02:41:32;2.85;92.97
12907;DHT22;6521;50.498;8.474;2022-11-25T02:44:07;2.81;93.03
12907;DHT22;6521;50.498;8.474;2022-11-25T02:46:38;2.79;93.13
12907;DHT22;6521;50.498;8.474;2022-11-25T02:49:09;2.81;93.25
12907;DHT22;6521;50.498;8.474;2022-11-25T02:51:41;2.84;93.37
12907;DHT22;6521;50.498;8.474;2022-11-25T02:54:14;2.85;93.51
12907;DHT22;6521;50.498;8.474;2022-11-25T02:56:45;2.88;93.52
12907;DHT22;6521;50.498;8.474;2022-11-25T02:59:16;2.89;93.31
12907;DHT22;6521;50.498;8.474;2022-11-25T03:01:46;2.87;93.25
12907;DHT22;6521;50.498;8.474;2022-11-25T03:04:17;2.81;92.84
12907;DHT22;6521;50.498;8.474;2022-11-25T03:06:48;2.68;93.08
12907;DHT22;6521;50.498;8.474;2022-11-25T03:09:19;2.66;93.19
12907;DHT22;6521;50.498;8.474;2022-11-25T03:11:49;2.64;93.17
12907;DHT22;6521;50.498;8.474;2022-11-25T03:14:39;2.59;93.24
12907;DHT22;6521;50.498;8.474;2022-11-25T03:17:11;2.59;93.35
12907;DHT22;6521;50.498;8.474;2022-11-25T03:19:43;2.59;93.49
12907;DHT22;6521;50.498;8.474;2022-11-25T03:22:15;2.61;93.53
12907;DHT22;6521;50.498;8.474;2022-11-25T03:24:47;2.62;93.57
12907;DHT22;6521;50.498;8.474;2022-11-25T03:27:17;2.64;93.49
12907;DHT22;6521;50.498;8.474;2022-11-25T03:29:49;2.65;93.50
12907;DHT22;6521;50.498;8.474;2022-11-25T03:32:20;2.65;93.64
12907;DHT22;6521;50.498;8.474;2022-11-25T03:34:51;2.65;93.56
12907;DHT22;6521;50.498;8.474;2022-11-25T03:37:22;2.65;93.64
12907;DHT22;6521;50.498;8.474;2022-11-25T03:39:52;2.66;93.67
12907;DHT22;6521;50.498;8.474;2022-11-25T03:42:23;2.66;93.82
12907;DHT22;6521;50.498;8.474;2022-11-25T03:44:54;2.75;93.59
12907;DHT22;6521;50.498;8.474;2022-11-25T03:47:25;2.75;93.64
12907;DHT22;6521;50.498;8.474;2022-11-25T03:49:56;2.74;93.23
12907;DHT22;6521;50.498;8.474;2022-11-25T03:52:26;2.57;92.31
12907;DHT22;6521;50.498;8.474;2022-11-25T03:54:58;2.48;92.62
12907;DHT22;6521;50.498;8.474;2022-11-25T03:57:33;2.42;92.61
12907;DHT22;6521;50.498;8.474;2022-11-25T04:00:05;2.38;92.55
12907;DHT22;6521;50.498;8.474;2022-11-25T04:02:48;2.33;92.88
12907;DHT22;6521;50.498;8.474;2022-11-25T04:05:21;2.36;93.34
12907;DHT22;6521;50.498;8.474;2022-11-25T04:07:52;2.45;93.57
12907;DHT22;6521;50.498;8.474;2022-11-25T04:10:24;2.54;93.96
12907;DHT22;6521;50.498;8.474;2022-11-25T04:12:55;2.58;93.84
12907;DHT22;6521;50.498;8.474;2022-11-25T04:15:32;2.62;93.86
12907;DHT22;6521;50.498;8.474;2022-11-25T04:18:03;2.71;93.96
12907;DHT22;6521;50.498;8.474;2022-11-25T04:20:36;2.75;94.07
12907;DHT22;6521;50.498;8.474;2022-11-25T04:23:10;2.81;94.05
12907;DHT22;6521;50.498;8.474;2022-11-25T04:25:50;2.85;94.05
12907;DHT22;6521;50.498;8.474;2022-11-25T04:28:28;2.85;93.90
12907;DHT22;6521;50.498;8.474;2022-11-25T04:30:59;2.82;93.76
12907;DHT22;6521;50.498;8.474;2022-11-25T04:33:30;2.82;93.82
12907;DHT22;6521;50.498;8.474;2022-11-25T04:36:01;2.84;93.79
12907;DHT22;6521;50.498;8.474;2022-11-25T04:38:31;2.87;93.73
12907;DHT22;6521;50.498;8.474;2022-11-25T04:41:03;2.87;93.81
12907;DHT22;6521;50.498;8.474;2022-11-25T04:43:38;2.88;93.90
12907;DHT22;6521;50.498;8.474;2022-11-25T04:46:23;2.88;93.77
12907;DHT22;6521;50.498;8.474;2022-11-25T04:48:55;2.91;93.67
12907;DHT22;6521;50.498;8.474;2022-11-25T04:51:26;2.93;93.39
12907;DHT22;6521;50.498;8.474;2022-11-25T04:54:01;2.87;93.37
12907;DHT22;6521;50.498;8.474;2022-11-25T04:56:32;2.82;93.14
12907;DHT22;6521;50.498;8.474;2022-11-25T04:59:03;2.78;93.17
12907;DHT22;6521;50.498;8.474;2022-11-25T05:01:52;2.75;92.64
12907;DHT22;6521;50.498;8.474;2022-11-25T05:04:38;2.61;92.86
12907;DHT22;6521;50.498;8.474;2022-11-25T05:07:10;2.61;93.15
12907;DHT22;6521;50.498;8.474;2022-11-25T05:09:41;2.61;93.19
12907;DHT22;6521;50.498;8.474;2022-11-25T05:12:24;2.59;93.34
12907;DHT22;6521;50.498;8.474;2022-11-25T05:14:56;2.65;93.51
12907;DHT22;6521;50.498;8.474;2022-11-25T05:17:29;2.72;94.15
12907;DHT22;6521;50.498;8.474;2022-11-25T05:20:00;2.75;94.09
12907;DHT22;6521;50.498;8.474;2022-11-25T05:22:33;2.81;94.22
12907;DHT22;6521;50.498;8.474;2022-11-25T05:25:05;2.84;94.13
12907;DHT22;6521;50.498;8.474;2022-11-25T05:27:39;2.88;94.18
12907;DHT22;6521;50.498;8.474;2022-11-25T05:30:13;2.92;94.38
12907;DHT22;6521;50.498;8.474;2022-11-25T05:32:44;2.92;94.33
12907;DHT22;6521;50.498;8.474;2022-11-25T05:35:16;2.98;94.37
12907;DHT22;6521;50.498;8.474;2022-11-25T05:37:47;3.02;94.42
12907;DHT22;6521;50.498;8.474;2022-11-25T05:40:18;3.08;94.29
12907;DHT22;6521;50.498;8.474;2022-11-25T05:42:59;3.10;94.16
12907;DHT22;6521;50.498;8.474;2022-11-25T05:45:33;3.08;94.16
12907;DHT22;6521;50.498;8.474;2022-11-25T05:48:04;3.10;94.35
12907;DHT22;6521;50.498;8.474;2022-11-25T05:50:36;3.13;94.21
12907;DHT22;6521;50.498;8.474;2022-11-25T05:53:17;3.12;94.47
12907;DHT22;6521;50.498;8.474;2022-11-25T05:55:56;3.10;94.55
12907;DHT22;6521;50.498;8.474;2022-11-25T05:58:48;3.15;94.66
12907;DHT22;6521;50.498;8.474;2022-11-25T06:01:20;3.16;94.79
12907;DHT22;6521;50.498;8.474;2022-11-25T06:03:52;3.24;94.92
12907;DHT22;6521;50.498;8.474;2022-11-25T06:06:23;3.24;93.86
12907;DHT22;6521;50.498;8.474;2022-11-25T06:08:54;3.12;92.76
12907;DHT22;6521;50.498;8.474;2022-11-25T06:11:26;2.95;92.74
12907;DHT22;6521;50.498;8.474;2022-11-25T06:13:57;2.78;92.57
12907;DHT22;6521;50.498;8.474;2022-11-25T06:16:28;2.66;92.79
12907;DHT22;6521;50.498;8.474;2022-11-25T06:19:16;2.65;93.03
12907;DHT22;6521;50.498;8.474;2022-11-25T06:21:47;2.61;93.29
12907;DHT22;6521;50.498;8.474;2022-11-25T06:24:18;2.58;93.81
12907;DHT22;6521;50.498;8.474;2022-11-25T06:26:51;2.62;93.97
12907;DHT22;6521;50.498;8.474;2022-11-25T06:29:22;2.66;94.33
12907;DHT22;6521;50.498;8.474;2022-11-25T06:31:54;2.72;94.65
12907;DHT22;6521;50.498;8.474;2022-11-25T06:34:40;2.78;94.59
12907;DHT22;6521;50.498;8.474;2022-11-25T06:37:18;2.85;94.63
12907;DHT22;6521;50.498;8.474;2022-11-25T06:39:49;2.93;94.75
12907;DHT22;6521;50.498;8.474;2022-11-25T06:42:19;2.98;94.37
12907;DHT22;6521;50.498;8.474;2022-11-25T06:44:50;3.02;94.20
12907;DHT22;6521;50.498;8.474;2022-11-25T06:47:21;3.05;94.17
12907;DHT22;6521;50.498;8.474;2022-11-25T06:49:52;3.03;93.92
12907;DHT22;6521;50.498;8.474;2022-11-25T06:52:22;3.03;94.02
12907;DHT22;6521;50.498;8.474;2022-11-25T06:54:53;3.02;94.00
12907;DHT22;6521;50.498;8.474;2022-11-25T06:57:24;3.00;94.27
12907;DHT22;6521;50.498;8.474;2022-11-25T06:59:55;3.06;94.49
12907;DHT22;6521;50.498;8.474;2022-11-25T07:02:26;3.09;94.59
12907;DHT22;6521;50.498;8.474;2022-11-25T07:04:56;3.13;94.46
12907;DHT22;6521;50.498;8.474;2022-11-25T07:07:27;3.17;94.49
12907;DHT22;6521;50.498;8.474;2022-11-25T07:09:58;3.19;94.41
12907;DHT22;6521;50.498;8.474;2022-11-25T07:12:29;3.20;94.52
12907;DHT22;6521;50.498;8.474;2022-11-25T07:15:00;3.26;94.56
12907;DHT22;6521;50.498;8.474;2022-11-25T07:17:31;3.29;94.42
12907;DHT22;6521;50.498;8.474;2022-11-25T07:20:02;3.30;94.54
12907;DHT22;6521;50.498;8.474;2022-11-25T07:22:32;3.31;94.64
12907;DHT22;6521;50.498;8.474;2022-11-25T07:25:03;3.38;94.72
12907;DHT22;6521;50.498;8.474;2022-11-25T07:27:34;3.40;94.70
12907;DHT22;6521;50.498;8.474;2022-11-25T07:30:06;3.43;94.60
12907;DHT22;6521;50.498;8.474;2022-11-25T07:32:37;3.47;94.56
12907;DHT22;6521;50.498;8.474;2022-11-25T07:35:08;3.53;94.74
12907;DHT22;6521;50.498;8.474;2022-11-25T07:37:39;3.57;94.68
12907;DHT22;6521;50.498;8.474;2022-11-25T07:40:10;3.64;94.76
12907;DHT22;6521;50.498;8.474;2022-11-25T07:42:41;3.73;94.87
12907;DHT22;6521;50.498;8.474;2022-11-25T07:45:13;3.78;94.91
12907;DHT22;6521;50.498;8.474;2022-11-25T07:47:45;3.84;94.80
12907;DHT22;6521;50.498;8.474;2022-11-25T07:50:16;3.88;94.65
12907;DHT22;6521;50.498;8.474;2022-11-25T07:52:47;3.89;94.42
12907;DHT22;6521;50.498;8.474;2022-11-25T07:55:18;3.91;94.23
12907;DHT22;6521;50.498;8.474;2022-11-25T07:57:48;3.85;94.34
12907;DHT22;6521;50.498;8.474;2022-11-25T08:00:20;3.84;94.32
12907;DHT22;6521;50.498;8.474;2022-11-25T08:02:50;3.87;94.39
12907;DHT22;6521;50.498;8.474;2022-11-25T08:05:22;3.87;94.49
12907;DHT22;6521;50.498;8.474;2022-11-25T08:07:53;3.88;94.54
12907;DHT22;6521;50.498;8.474;2022-11-25T08:10:24;3.89;94.55
12907;DHT22;6521;50.498;8.474;2022-11-25T08:12:54;3.91;94.62
12907;DHT22;6521;50.498;8.474;2022-11-25T08:15:25;3.96;94.67
12907;DHT22;6521;50.498;8.474;2022-11-25T08:17:56;4.03;94.62
12907;DHT22;6521;50.498;8.474;2022-11-25T08:20:26;4.01;94.76
12907;DHT22;6521;50.498;8.474;2022-11-25T08:22:58;4.03;94.92
12907;DHT22;6521;50.498;8.474;2022-11-25T08:25:29;4.08;94.94
12907;DHT22;6521;50.498;8.474;2022-11-25T08:28:01;4.09;95.05
12907;DHT22;6521;50.498;8.474;2022-11-25T08:30:32;4.16;95.11
12907;DHT22;6521;50.498;8.474;2022-11-25T08:33:03;4.16;95.16
12907;DHT22;6521;50.498;8.474;2022-11-25T08:35:35;4.22;95.22
12907;DHT22;6521;50.498;8.474;2022-11-25T08:38:09;4.30;95.26
12907;DHT22;6521;50.498;8.474;2022-11-25T08:40:42;4.33;95.20
12907;DHT22;6521;50.498;8.474;2022-11-25T08:43:15;4.37;95.14
12907;DHT22;6521;50.498;8.474;2022-11-25T08:45:49;4.40;95.13
12907;DHT22;6521;50.498;8.474;2022-11-25T08:48:20;4.47;95.20
12907;DHT22;6521;50.498;8.474;2022-11-25T08:50:52;4.56;95.16
12907;DHT22;6521;50.498;8.474;2022-11-25T08:53:23;4.66;95.21
12907;DHT22;6521;50.498;8.474;2022-11-25T08:55:54;4.73;95.24
12907;DHT22;6521;50.498;8.474;2022-11-25T08:58:25;4.80;95.15
12907;DHT22;6521;50.498;8.474;2022-11-25T09:00:56;4.85;95.04
12907;DHT22;6521;50.498;8.474;2022-11-25T09:03:27;4.92;94.97
12907;DHT22;6521;50.498;8.474;2022-11-25T09:05:57;4.99;94.95
12907;DHT22;6521;50.498;8.474;2022-11-25T09:08:30;5.05;94.86
12907;DHT22;6521;50.498;8.474;2022-11-25T09:11:03;5.12;94.65
12907;DHT22;6521;50.498;8.474;2022-11-25T09:13:34;5.11;94.61
12907;DHT22;6521;50.498;8.474;2022-11-25T09:16:05;5.15;94.72
12907;DHT22;6521;50.498;8.474;2022-11-25T09:18:37;5.25;94.77
12907;DHT22;6521;50.498;8.474;2022-11-25T09:21:11;5.25;94.70
12907;DHT22;6521;50.498;8.474;2022-11-25T09:23:42;5.26;94.72
12907;DHT22;6521;50.498;8.474;2022-11-25T09:26:33;5.35;94.68
12907;DHT22;6521;50.498;8.474;2022-11-25T09:29:06;5.39;94.74
12907;DHT22;6521;50.498;8.474;2022-11-25T09:31:38;5.46;94.80
12907;DHT22;6521;50.498;8.474;2022-11-25T09:34:08;5.55;94.63
12907;DHT22;6521;50.498;8.474;2022-11-25T09:36:39;5.56;94.32
12907;DHT22;6521;50.498;8.474;2022-11-25T09:39:10;5.53;94.21
12907;DHT22;6521;50.498;8.474;2022-11-25T09:48:14;5.47;94.57
12907;DHT22;6521;50.498;8.474;2022-11-25T09:53:50;5.69;94.94
12907;DHT22;6521;50.498;8.474;2022-11-25T09:56:33;5.73;95.06
12907;DHT22;6521;50.498;8.474;2022-11-25T10:01:47;5.93;95.02
12907;DHT22;6521;50.498;8.474;2022-11-25T10:04:24;5.95;94.93
12907;DHT22;6521;50.498;8.474;2022-11-25T10:06:58;6.04;95.03
12907;DHT22;6521;50.498;8.474;2022-11-25T10:09:33;6.17;95.10
12907;DHT22;6521;50.498;8.474;2022-11-25T10:12:16;6.22;95.04
12907;DHT22;6521;50.498;8.474;2022-11-25T10:14:51;6.22;94.77
12907;DHT22;6521;50.498;8.474;2022-11-25T10:17:45;6.13;94.54
12907;DHT22;6521;50.498;8.474;2022-11-25T10:20:29;6.10;94.59
12907;DHT22;6521;50.498;8.474;2022-11-25T10:23:25;6.03;94.24
12907;DHT22;6521;50.498;8.474;2022-11-25T10:26:00;6.01;94.47
12907;DHT22;6521;50.498;8.474;2022-11-25T10:28:32;6.08;94.59
12907;DHT22;6521;50.498;8.474;2022-11-25T10:31:18;6.13;94.72
12907;DHT22;6521;50.498;8.474;2022-11-25T10:33:54;6.15;94.74
12907;DHT22;6521;50.498;8.474;2022-11-25T10:36:34;6.24;94.84
12907;DHT22;6521;50.498;8.474;2022-11-25T10:41:56;6.38;95.06
12907;DHT22;6521;50.498;8.474;2022-11-25T10:44:37;6.45;94.92
12907;DHT22;6521;50.498;8.474;2022-11-25T10:50:38;6.61;94.95
12907;DHT22;6521;50.498;8.474;2022-11-25T10:53:24;6.65;94.92
12907;DHT22;6521;50.498;8.474;2022-11-25T10:56:01;6.69;95.07
12907;DHT22;6521;50.498;8.474;2022-11-25T10:58:35;6.75;95.02
12907;DHT22;6521;50.498;8.474;2022-11-25T11:01:13;6.83;95.11
12907;DHT22;6521;50.498;8.474;2022-11-25T11:03:50;6.89;95.03
12907;DHT22;6521;50.498;8.474;2022-11-25T11:06:37;6.90;95.09
12907;DHT22;6521;50.498;8.474;2022-11-25T11:09:36;6.99;95.35
12907;DHT22;6521;50.498;8.474;2022-11-25T11:12:28;7.08;95.34
12907;DHT22;6521;50.498;8.474;2022-11-25T11:15:17;7.18;95.23
12907;DHT22;6521;50.498;8.474;2022-11-25T11:17:48;7.31;95.19
12907;DHT22;6521;50.498;8.474;2022-11-25T11:20:24;7.42;95.07
12907;DHT22;6521;50.498;8.474;2022-11-25T11:23:01;7.56;94.96
12907;DHT22;6521;50.498;8.474;2022-11-25T11:25:34;7.65;94.67
12907;DHT22;6521;50.498;8.474;2022-11-25T11:28:25;7.85;94.86
12907;DHT22;6521;50.498;8.474;2022-11-25T11:36:24;8.12;93.78
12907;DHT22;6521;50.498;8.474;2022-11-25T11:41:54;8.85;91.94
12907;DHT22;6521;50.498;8.474;2022-11-25T11:47:45;9.55;89.74
12907;DHT22;6521;50.498;8.474;2022-11-25T11:53:05;9.54;88.56
12907;DHT22;6521;50.498;8.474;2022-11-25T12:01:24;9.24;88.58
12907;DHT22;6521;50.498;8.474;2022-11-25T12:04:11;9.10;89.23
12907;DHT22;6521;50.498;8.474;2022-11-25T12:07:02;8.92;89.29
12907;DHT22;6521;50.498;8.474;2022-11-25T12:09:43;8.79;89.66
12907;DHT22;6521;50.498;8.474;2022-11-25T12:12:17;8.72;90.50
12907;DHT22;6521;50.498;8.474;2022-11-25T12:14:51;9.00;90.41
12907;DHT22;6521;50.498;8.474;2022-11-25T12:17:36;9.26;89.79
12907;DHT22;6521;50.498;8.474;2022-11-25T12:20:35;9.22;88.46
12907;DHT22;6521;50.498;8.474;2022-11-25T12:23:14;9.06;88.44
12907;DHT22;6521;50.498;8.474;2022-11-25T12:25:46;9.06;89.29
12907;DHT22;6521;50.498;8.474;2022-11-25T12:28:41;9.12;88.70
12907;DHT22;6521;50.498;8.474;2022-11-25T12:31:28;9.16;88.25
12907;DHT22;6521;50.498;8.474;2022-11-25T12:34:39;9.08;88.36
12907;DHT22;6521;50.498;8.474;2022-11-25T12:37:16;8.98;88.70
12907;DHT22;6521;50.498;8.474;2022-11-25T12:39:59;8.83;89.01
12907;DHT22;6521;50.498;8.474;2022-11-25T12:42:31;8.76;89.32
12907;DHT22;6521;50.498;8.474;2022-11-25T12:45:18;8.85;90.10
12907;DHT22;6521;50.498;8.474;2022-11-25T12:47:51;8.93;89.23
12907;DHT22;6521;50.498;8.474;2022-11-25T12:50:35;9.00;89.26
12907;DHT22;6521;50.498;8.474;2022-11-25T12:53:26;9.10;89.03
12907;DHT22;6521;50.498;8.474;2022-11-25T12:56:00;9.29;89.61
12907;DHT22;6521;50.498;8.474;2022-11-25T12:58:44;9.44;88.54
12907;DHT22;6521;50.498;8.474;2022-11-25T13:01:31;9.58;87.95
12907;DHT22;6521;50.498;8.474;2022-11-25T13:04:29;9.55;87.53
12907;DHT22;6521;50.498;8.474;2022-11-25T13:07:23;9.57;87.73
12907;DHT22;6521;50.498;8.474;2022-11-25T13:12:58;9.39;87.22
12907;DHT22;6521;50.498;8.474;2022-11-25T13:15:42;9.33;87.64
12907;DHT22;6521;50.498;8.474;2022-11-25T13:18:16;9.27;87.82
12907;DHT22;6521;50.498;8.474;2022-11-25T13:20:52;9.26;87.92
12907;DHT22;6521;50.498;8.474;2022-11-25T13:23:25;9.30;88.26
12907;DHT22;6521;50.498;8.474;2022-11-25T13:29:01;9.31;88.19
12907;DHT22;6521;50.498;8.474;2022-11-25T13:32:01;9.27;88.28
12907;DHT22;6521;50.498;8.474;2022-11-25T13:34:35;9.24;88.55
12907;DHT22;6521;50.498;8.474;2022-11-25T13:37:35;9.13;88.76
12907;DHT22;6521;50.498;8.474;2022-11-25T13:42:53;9.05;89.20
12907;DHT22;6521;50.498;8.474;2022-11-25T13:45:34;8.98;89.33
12907;DHT22;6521;50.498;8.474;2022-11-25T13:48:21;8.96;89.42
12907;DHT22;6521;50.498;8.474;2022-11-25T13:51:16;8.89;89.39
12907;DHT22;6521;50.498;8.474;2022-11-25T13:54:03;8.95;89.74
12907;DHT22;6521;50.498;8.474;2022-11-25T13:56:36;9.09;89.68
12907;DHT22;6521;50.498;8.474;2022-11-25T14:01:51;9.41;88.08
12907;DHT22;6521;50.498;8.474;2022-11-25T14:05:19;9.36;87.26
12907;DHT22;6521;50.498;8.474;2022-11-25T14:08:06;9.26;87.61
12907;DHT22;6521;50.498;8.474;2022-11-25T14:25:03;9.06;88.76
12907;DHT22;6521;50.498;8.474;2022-11-25T14:27:44;9.03;88.69
12907;DHT22;6521;50.498;8.474;2022-11-25T14:30:16;9.00;88.76
12907;DHT22;6521;50.498;8.474;2022-11-25T14:32:55;8.98;89.03
12907;DHT22;6521;50.498;8.474;2022-11-25T14:38:44;8.95;88.76
12907;DHT22;6521;50.498;8.474;2022-11-25T14:41:20;8.89;88.76
12907;DHT22;6521;50.498;8.474;2022-11-25T14:43:57;8.81;88.90
12907;DHT22;6521;50.498;8.474;2022-11-25T14:46:30;8.81;88.92
12907;DHT22;6521;50.498;8.474;2022-11-25T14:49:01;8.78;89.21
12907;DHT22;6521;50.498;8.474;2022-11-25T14:51:34;8.72;89.43
12907;DHT22;6521;50.498;8.474;2022-11-25T14:54:07;8.73;89.41
12907;DHT22;6521;50.498;8.474;2022-11-25T14:56:38;8.76;89.42
12907;DHT22;6521;50.498;8.474;2022-11-25T14:59:09;8.75;89.50
12907;DHT22;6521;50.498;8.474;2022-11-25T15:01:53;8.72;89.42
12907;DHT22;6521;50.498;8.474;2022-11-25T15:04:24;8.68;89.35
12907;DHT22;6521;50.498;8.474;2022-11-25T15:06:56;8.62;89.49
12907;DHT22;6521;50.498;8.474;2022-11-25T15:09:37;8.57;89.68
12907;DHT22;6521;50.498;8.474;2022-11-25T15:12:14;8.48;89.88
12907;DHT22;6521;50.498;8.474;2022-11-25T15:14:51;8.44;90.12
12907;DHT22;6521;50.498;8.474;2022-11-25T15:17:34;8.33;90.21
12907;DHT22;6521;50.498;8.474;2022-11-25T15:20:12;8.21;90.12
12907;DHT22;6521;50.498;8.474;2022-11-25T15:22:51;8.19;90.47
12907;DHT22;6521;50.498;8.474;2022-11-25T15:25:22;8.09;90.41
12907;DHT22;6521;50.498;8.474;2022-11-25T15:27:53;7.96;90.74
12907;DHT22;6521;50.498;8.474;2022-11-25T15:30:26;7.89;90.54
12907;DHT22;6521;50.498;8.474;2022-11-25T15:32:58;7.76;90.59
12907;DHT22;6521;50.498;8.474;2022-11-25T15:35:29;7.66;90.73
12907;DHT22;6521;50.498;8.474;2022-11-25T15:38:30;7.56;90.72
12907;DHT22;6521;50.498;8.474;2022-11-25T15:41:05;7.45;91.01
12907;DHT22;6521;50.498;8.474;2022-11-25T15:43:38;7.40;91.29
12907;DHT22;6521;50.498;8.474;2022-11-25T15:46:11;7.32;91.32
12907;DHT22;6521;50.498;8.474;2022-11-25T15:48:44;7.25;91.55
12907;DHT22;6521;50.498;8.474;2022-11-25T15:51:32;7.18;91.77
12907;DHT22;6521;50.498;8.474;2022-11-25T15:56:45;7.17;92.31
12907;DHT22;6521;50.498;8.474;2022-11-25T15:59:44;7.17;92.48
12907;DHT22;6521;50.498;8.474;2022-11-25T16:10:21;7.48;92.06
12907;DHT22;6521;50.498;8.474;2022-11-25T16:16:09;7.55;91.77
12907;DHT22;6521;50.498;8.474;2022-11-25T16:18:55;7.54;91.57
12907;DHT22;6521;50.498;8.474;2022-11-25T16:21:28;7.54;91.49
12907;DHT22;6521;50.498;8.474;2022-11-25T16:26:54;7.44;91.23
12907;DHT22;6521;50.498;8.474;2022-11-25T16:29:30;7.45;91.05
12907;DHT22;6521;50.498;8.474;2022-11-25T16:32:14;7.47;91.00
12907;DHT22;6521;50.498;8.474;2022-11-25T16:34:46;7.50;90.87
12907;DHT22;6521;50.498;8.474;2022-11-25T16:37:17;7.45;90.77
12907;DHT22;6521;50.498;8.474;2022-11-25T16:39:48;7.42;90.74
12907;DHT22;6521;50.498;8.474;2022-11-25T16:42:20;7.42;90.73
12907;DHT22;6521;50.498;8.474;2022-11-25T16:44:51;7.36;90.67
12907;DHT22;6521;50.498;8.474;2022-11-25T16:47:21;7.34;90.87
12907;DHT22;6521;50.498;8.474;2022-11-25T16:49:53;7.34;90.91
12907;DHT22;6521;50.498;8.474;2022-11-25T16:52:24;7.34;90.90
12907;DHT22;6521;50.498;8.474;2022-11-25T16:54:54;7.31;90.90
12907;DHT22;6521;50.498;8.474;2022-11-25T16:57:25;7.31;90.88
12907;DHT22;6521;50.498;8.474;2022-11-25T16:59:56;7.28;91.06
12907;DHT22;6521;50.498;8.474;2022-11-25T17:02:30;7.27;91.09
12907;DHT22;6521;50.498;8.474;2022-11-25T17:05:17;7.25;91.18
12907;DHT22;6521;50.498;8.474;2022-11-25T17:07:48;7.25;91.28
12907;DHT22;6521;50.498;8.474;2022-11-25T17:10:19;7.27;91.28
12907;DHT22;6521;50.498;8.474;2022-11-25T17:12:51;7.25;91.37
12907;DHT22;6521;50.498;8.474;2022-11-25T17:15:29;7.23;91.51
12907;DHT22;6521;50.498;8.474;2022-11-25T17:18:02;7.23;91.62
12907;DHT22;6521;50.498;8.474;2022-11-25T17:20:34;7.23;91.58
12907;DHT22;6521;50.498;8.474;2022-11-25T17:23:11;7.23;91.70
12907;DHT22;6521;50.498;8.474;2022-11-25T17:25:47;7.31;91.56
12907;DHT22;6521;50.498;8.474;2022-11-25T17:28:19;7.36;91.44
12907;DHT22;6521;50.498;8.474;2022-11-25T17:30:50;7.42;91.37
12907;DHT22;6521;50.498;8.474;2022-11-25T17:33:21;7.45;91.23
12907;DHT22;6521;50.498;8.474;2022-11-25T17:35:51;7.45;91.23
12907;DHT22;6521;50.498;8.474;2022-11-25T17:38:22;7.50;91.13
12907;DHT22;6521;50.498;8.474;2022-11-25T17:40:53;7.48;91.04
12907;DHT22;6521;50.498;8.474;2022-11-25T17:43:24;7.45;91.03
12907;DHT22;6521;50.498;8.474;2022-11-25T17:45:54;7.51;90.96
12907;DHT22;6521;50.498;8.474;2022-11-25T17:48:25;7.56;90.83
12907;DHT22;6521;50.498;8.474;2022-11-25T17:50:56;7.58;90.68
12907;DHT22;6521;50.498;8.474;2022-11-25T17:53:27;7.59;90.76
12907;DHT22;6521;50.498;8.474;2022-11-25T17:55:58;7.55;90.88
12907;DHT22;6521;50.498;8.474;2022-11-25T17:58:29;7.56;91.02
12907;DHT22;6521;50.498;8.474;2022-11-25T18:01:00;7.61;91.10
12907;DHT22;6521;50.498;8.474;2022-11-25T18:03:30;7.62;91.14
12907;DHT22;6521;50.498;8.474;2022-11-25T18:06:01;7.58;91.29
12907;DHT22;6521;50.498;8.474;2022-11-25T18:08:32;7.61;91.43
12907;DHT22;6521;50.498;8.474;2022-11-25T18:11:05;7.61;91.38
12907;DHT22;6521;50.498;8.474;2022-11-25T18:13:38;7.56;91.46
12907;DHT22;6521;50.498;8.474;2022-11-25T18:16:10;7.56;91.61
12907;DHT22;6521;50.498;8.474;2022-11-25T18:18:41;7.48;91.76
12907;DHT22;6521;50.498;8.474;2022-11-25T18:21:12;7.45;92.14